sensor_id;sensor_type;location;lat;lon;timestamp;P1;durP1;ratioP1;P2;durP2;ratioP2
16634;SDS011;8431;52.458;9.998;2023-04-25T00:01:17;8.40;;;4.07;;
16634;SDS011;8431;52.458;9.998;2023-04-25T00:03:44;10.55;;;3.67;;
16634;SDS011;8431;52.458;9.998;2023-04-25T00:06:13;6.57;;;4.00;;
16634;SDS011;8431;52.458;9.998;2023-04-25T00:08:40;10.65;;;4.25;;
16634;SDS011;8431;52.458;9.998;2023-04-25T00:11:07;7.28;;;4.13;;
16634;SDS011;8431;52.458;9.998;2023-04-25T00:13:34;9.32;;;4.60;;
16634;SDS011;8431;52.458;9.998;2023-04-25T00:16:01;9.43;;;4.45;;
16634;SDS011;8431;52.458;9.998;2023-04-25T00:18:29;8.73;;;4.55;;
16634;SDS011;8431;52.458;9.998;2023-04-25T00:20:58;11.77;;;4.70;;
16634;SDS011;8431;52.458;9.998;2023-04-25T00:23:26;9.07;;;4.82;;
16634;SDS011;8431;52.458;9.998;2023-04-25T00:25:53;10.45;;;5.28;;
16634;SDS011;8431;52.458;9.998;2023-04-25T00:28:20;9.98;;;5.50;;
16634;SDS011;8431;52.458;9.998;2023-04-25T00:30:47;12.60;;;5.22;;
16634;SDS011;8431;52.458;9.998;2023-04-25T00:33:15;9.93;;;4.75;;
16634;SDS011;8431;52.458;9.998;2023-04-25T00:35:42;8.90;;;4.93;;
16634;SDS011;8431;52.458;9.998;2023-04-25T00:38:09;8.85;;;5.10;;
16634;SDS011;8431;52.458;9.998;2023-04-25T00:40:37;11.45;;;4.90;;
16634;SDS011;8431;52.458;9.998;2023-04-25T00:43:04;12.70;;;5.00;;
16634;SDS011;8431;52.458;9.998;2023-04-25T00:45:32;12.00;;;4.63;;
16634;SDS011;8431;52.458;9.998;2023-04-25T00:48:04;11.60;;;5.07;;
16634;SDS011;8431;52.458;9.998;2023-04-25T00:50:32;8.50;;;4.88;;
16634;SDS011;8431;52.458;9.998;2023-04-25T00:53:00;11.50;;;5.40;;
16634;SDS011;8431;52.458;9.998;2023-04-25T00:55:28;13.00;;;5.03;;
16634;SDS011;8431;52.458;9.998;2023-04-25T00:57:58;7.97;;;5.07;;
16634;SDS011;8431;52.458;9.998;2023-04-25T01:00:25;11.07;;;4.32;;
16634;SDS011;8431;52.458;9.998;2023-04-25T01:02:52;10.80;;;4.88;;
16634;SDS011;8431;52.458;9.998;2023-04-25T01:05:22;12.70;;;4.82;;
16634;SDS011;8431;52.458;9.998;2023-04-25T01:07:50;10.00;;;5.22;;
16634;SDS011;8431;52.458;9.998;2023-04-25T01:10:17;9.82;;;5.18;;
16634;SDS011;8431;52.458;9.998;2023-04-25T01:12:44;10.43;;;4.75;;
16634;SDS011;8431;52.458;9.998;2023-04-25T01:15:13;12.73;;;5.55;;
16634;SDS011;8431;52.458;9.998;2023-04-25T01:17:40;9.32;;;5.47;;
16634;SDS011;8431;52.458;9.998;2023-04-25T01:20:09;11.32;;;5.35;;
16634;SDS011;8431;52.458;9.998;2023-04-25T01:22:39;9.30;;;4.53;;
16634;SDS011;8431;52.458;9.998;2023-04-25T01:25:06;11.90;;;5.43;;
16634;SDS011;8431;52.458;9.998;2023-04-25T01:27:34;9.95;;;5.40;;
16634;SDS011;8431;52.458;9.998;2023-04-25T01:30:03;17.10;;;5.82;;
16634;SDS011;8431;52.458;9.998;2023-04-25T01:32:31;12.27;;;4.97;;
16634;SDS011;8431;52.458;9.998;2023-04-25T01:35:03;10.73;;;5.05;;
16634;SDS011;8431;52.458;9.998;2023-04-25T01:37:34;9.07;;;5.53;;
16634;SDS011;8431;52.458;9.998;2023-04-25T01:40:03;13.18;;;5.63;;
16634;SDS011;8431;52.458;9.998;2023-04-25T01:42:31;12.50;;;5.80;;
16634;SDS011;8431;52.458;9.998;2023-04-25T01:44:58;12.63;;;6.28;;
16634;SDS011;8431;52.458;9.998;2023-04-25T01:47:25;9.93;;;5.78;;
16634;SDS011;8431;52.458;9.998;2023-04-25T01:49:52;12.98;;;6.38;;
16634;SDS011;8431;52.458;9.998;2023-04-25T01:52:20;17.70;;;5.40;;
16634;SDS011;8431;52.458;9.998;2023-04-25T01:54:47;10.20;;;5.60;;
16634;SDS011;8431;52.458;9.998;2023-04-25T01:57:16;15.48;;;5.75;;
16634;SDS011;8431;52.458;9.998;2023-04-25T01:59:43;11.25;;;5.35;;
16634;SDS011;8431;52.458;9.998;2023-04-25T02:02:10;11.95;;;5.25;;
16634;SDS011;8431;52.458;9.998;2023-04-25T02:04:37;12.70;;;5.22;;
16634;SDS011;8431;52.458;9.998;2023-04-25T02:07:07;13.95;;;5.70;;
16634;SDS011;8431;52.458;9.998;2023-04-25T02:09:34;10.73;;;5.72;;
16634;SDS011;8431;52.458;9.998;2023-04-25T02:12:01;10.90;;;5.95;;
16634;SDS011;8431;52.458;9.998;2023-04-25T02:14:29;10.73;;;6.47;;
16634;SDS011;8431;52.458;9.998;2023-04-25T02:16:56;10.65;;;5.38;;
16634;SDS011;8431;52.458;9.998;2023-04-25T02:19:23;8.85;;;6.20;;
16634;SDS011;8431;52.458;9.998;2023-04-25T02:21:50;10.52;;;5.57;;
16634;SDS011;8431;52.458;9.998;2023-04-25T02:24:17;14.73;;;6.75;;
16634;SDS011;8431;52.458;9.998;2023-04-25T02:26:44;12.40;;;6.72;;
16634;SDS011;8431;52.458;9.998;2023-04-25T02:29:12;10.57;;;6.28;;
16634;SDS011;8431;52.458;9.998;2023-04-25T02:31:41;11.45;;;6.53;;
16634;SDS011;8431;52.458;9.998;2023-04-25T02:34:08;12.20;;;7.07;;
16634;SDS011;8431;52.458;9.998;2023-04-25T02:36:35;11.40;;;6.88;;
16634;SDS011;8431;52.458;9.998;2023-04-25T02:39:02;9.13;;;6.07;;
16634;SDS011;8431;52.458;9.998;2023-04-25T02:41:30;10.82;;;5.93;;
16634;SDS011;8431;52.458;9.998;2023-04-25T02:43:57;8.02;;;5.53;;
16634;SDS011;8431;52.458;9.998;2023-04-25T02:46:23;13.65;;;5.57;;
16634;SDS011;8431;52.458;9.998;2023-04-25T02:48:52;11.50;;;5.82;;
16634;SDS011;8431;52.458;9.998;2023-04-25T02:51:19;14.38;;;5.32;;
16634;SDS011;8431;52.458;9.998;2023-04-25T02:53:46;12.43;;;5.43;;
16634;SDS011;8431;52.458;9.998;2023-04-25T02:56:13;11.70;;;5.28;;
16634;SDS011;8431;52.458;9.998;2023-04-25T02:58:40;12.60;;;5.38;;
16634;SDS011;8431;52.458;9.998;2023-04-25T03:01:07;13.30;;;5.00;;
16634;SDS011;8431;52.458;9.998;2023-04-25T03:03:33;12.02;;;5.15;;
16634;SDS011;8431;52.458;9.998;2023-04-25T03:06:02;12.20;;;4.97;;
16634;SDS011;8431;52.458;9.998;2023-04-25T03:08:29;12.70;;;4.80;;
16634;SDS011;8431;52.458;9.998;2023-04-25T03:10:57;17.20;;;5.15;;
16634;SDS011;8431;52.458;9.998;2023-04-25T03:13:24;14.15;;;4.90;;
16634;SDS011;8431;52.458;9.998;2023-04-25T03:15:52;12.20;;;4.85;;
16634;SDS011;8431;52.458;9.998;2023-04-25T03:18:19;19.13;;;5.13;;
16634;SDS011;8431;52.458;9.998;2023-04-25T03:20:46;10.10;;;4.50;;
16634;SDS011;8431;52.458;9.998;2023-04-25T03:23:14;17.55;;;4.82;;
16634;SDS011;8431;52.458;9.998;2023-04-25T03:25:41;19.58;;;5.65;;
16634;SDS011;8431;52.458;9.998;2023-04-25T03:28:08;14.35;;;5.05;;
16634;SDS011;8431;52.458;9.998;2023-04-25T03:30:35;14.52;;;4.80;;
16634;SDS011;8431;52.458;9.998;2023-04-25T03:33:02;16.88;;;4.65;;
16634;SDS011;8431;52.458;9.998;2023-04-25T03:35:29;14.55;;;5.15;;
16634;SDS011;8431;52.458;9.998;2023-04-25T03:37:56;15.82;;;5.43;;
16634;SDS011;8431;52.458;9.998;2023-04-25T03:40:25;18.92;;;5.00;;
16634;SDS011;8431;52.458;9.998;2023-04-25T03:42:51;15.57;;;4.70;;
16634;SDS011;8431;52.458;9.998;2023-04-25T03:45:19;15.98;;;4.75;;
16634;SDS011;8431;52.458;9.998;2023-04-25T03:47:46;17.27;;;4.43;;
16634;SDS011;8431;52.458;9.998;2023-04-25T03:50:13;17.77;;;5.93;;
16634;SDS011;8431;52.458;9.998;2023-04-25T03:52:40;18.30;;;5.28;;
16634;SDS011;8431;52.458;9.998;2023-04-25T03:55:07;14.10;;;4.85;;
16634;SDS011;8431;52.458;9.998;2023-04-25T03:57:38;13.38;;;4.20;;
16634;SDS011;8431;52.458;9.998;2023-04-25T04:00:05;17.50;;;5.50;;
16634;SDS011;8431;52.458;9.998;2023-04-25T04:02:34;18.98;;;4.68;;
16634;SDS011;8431;52.458;9.998;2023-04-25T04:05:03;17.52;;;5.03;;
16634;SDS011;8431;52.458;9.998;2023-04-25T04:07:30;18.88;;;5.10;;
16634;SDS011;8431;52.458;9.998;2023-04-25T04:09:58;20.27;;;5.15;;
16634;SDS011;8431;52.458;9.998;2023-04-25T04:12:25;15.75;;;4.32;;
16634;SDS011;8431;52.458;9.998;2023-04-25T04:14:53;18.08;;;5.05;;
16634;SDS011;8431;52.458;9.998;2023-04-25T04:17:20;15.38;;;5.45;;
16634;SDS011;8431;52.458;9.998;2023-04-25T04:19:47;12.73;;;4.30;;
16634;SDS011;8431;52.458;9.998;2023-04-25T04:22:14;20.70;;;4.90;;
16634;SDS011;8431;52.458;9.998;2023-04-25T04:24:41;13.05;;;4.75;;
16634;SDS011;8431;52.458;9.998;2023-04-25T04:27:08;17.95;;;5.57;;
16634;SDS011;8431;52.458;9.998;2023-04-25T04:29:37;15.40;;;4.93;;
16634;SDS011;8431;52.458;9.998;2023-04-25T04:32:06;14.20;;;4.97;;
16634;SDS011;8431;52.458;9.998;2023-04-25T04:34:33;21.35;;;4.03;;
16634;SDS011;8431;52.458;9.998;2023-04-25T04:37:00;17.98;;;4.53;;
16634;SDS011;8431;52.458;9.998;2023-04-25T04:39:28;25.63;;;5.38;;
16634;SDS011;8431;52.458;9.998;2023-04-25T04:41:55;16.65;;;4.60;;
16634;SDS011;8431;52.458;9.998;2023-04-25T04:44:21;18.92;;;4.15;;
16634;SDS011;8431;52.458;9.998;2023-04-25T04:46:48;12.73;;;3.60;;
16634;SDS011;8431;52.458;9.998;2023-04-25T04:49:17;12.95;;;4.20;;
16634;SDS011;8431;52.458;9.998;2023-04-25T04:51:44;13.43;;;4.28;;
16634;SDS011;8431;52.458;9.998;2023-04-25T04:54:12;17.70;;;3.78;;
16634;SDS011;8431;52.458;9.998;2023-04-25T04:56:39;17.25;;;4.70;;
16634;SDS011;8431;52.458;9.998;2023-04-25T04:59:06;14.25;;;5.13;;
16634;SDS011;8431;52.458;9.998;2023-04-25T05:01:34;23.38;;;4.75;;
16634;SDS011;8431;52.458;9.998;2023-04-25T05:04:01;20.55;;;4.80;;
16634;SDS011;8431;52.458;9.998;2023-04-25T05:06:30;11.60;;;4.15;;
16634;SDS011;8431;52.458;9.998;2023-04-25T05:08:57;18.58;;;4.00;;
16634;SDS011;8431;52.458;9.998;2023-04-25T05:11:28;14.35;;;4.97;;
16634;SDS011;8431;52.458;9.998;2023-04-25T05:13:55;19.77;;;3.78;;
16634;SDS011;8431;52.458;9.998;2023-04-25T05:16:22;14.00;;;3.80;;
16634;SDS011;8431;52.458;9.998;2023-04-25T05:18:49;24.02;;;5.32;;
16634;SDS011;8431;52.458;9.998;2023-04-25T05:21:16;20.00;;;4.80;;
16634;SDS011;8431;52.458;9.998;2023-04-25T05:23:44;16.27;;;4.70;;
16634;SDS011;8431;52.458;9.998;2023-04-25T05:26:11;20.88;;;4.28;;
16634;SDS011;8431;52.458;9.998;2023-04-25T05:28:39;21.50;;;4.82;;
16634;SDS011;8431;52.458;9.998;2023-04-25T05:31:07;17.30;;;4.03;;
16634;SDS011;8431;52.458;9.998;2023-04-25T05:33:35;14.57;;;4.40;;
16634;SDS011;8431;52.458;9.998;2023-04-25T05:36:02;20.45;;;4.38;;
16634;SDS011;8431;52.458;9.998;2023-04-25T05:38:30;16.13;;;4.00;;
16634;SDS011;8431;52.458;9.998;2023-04-25T05:40:58;14.07;;;4.20;;
16634;SDS011;8431;52.458;9.998;2023-04-25T05:43:25;13.57;;;3.65;;
16634;SDS011;8431;52.458;9.998;2023-04-25T05:45:52;18.05;;;4.05;;
16634;SDS011;8431;52.458;9.998;2023-04-25T05:48:19;17.55;;;4.15;;
16634;SDS011;8431;52.458;9.998;2023-04-25T05:50:46;18.45;;;4.30;;
16634;SDS011;8431;52.458;9.998;2023-04-25T05:53:13;13.30;;;4.57;;
16634;SDS011;8431;52.458;9.998;2023-04-25T05:55:40;10.85;;;4.10;;
16634;SDS011;8431;52.458;9.998;2023-04-25T05:58:08;14.70;;;3.80;;
16634;SDS011;8431;52.458;9.998;2023-04-25T06:00:35;18.40;;;5.07;;
16634;SDS011;8431;52.458;9.998;2023-04-25T06:03:03;10.85;;;4.43;;
16634;SDS011;8431;52.458;9.998;2023-04-25T06:05:32;11.63;;;3.63;;
16634;SDS011;8431;52.458;9.998;2023-04-25T06:07:59;15.23;;;4.22;;
16634;SDS011;8431;52.458;9.998;2023-04-25T06:10:26;14.38;;;3.53;;
16634;SDS011;8431;52.458;9.998;2023-04-25T06:12:53;20.35;;;4.43;;
16634;SDS011;8431;52.458;9.998;2023-04-25T06:15:21;15.32;;;4.15;;
16634;SDS011;8431;52.458;9.998;2023-04-25T06:17:48;11.77;;;3.90;;
16634;SDS011;8431;52.458;9.998;2023-04-25T06:20:15;18.02;;;3.92;;
16634;SDS011;8431;52.458;9.998;2023-04-25T06:22:42;16.70;;;3.72;;
16634;SDS011;8431;52.458;9.998;2023-04-25T06:25:09;16.10;;;4.30;;
16634;SDS011;8431;52.458;9.998;2023-04-25T06:27:36;11.05;;;3.00;;
16634;SDS011;8431;52.458;9.998;2023-04-25T06:30:03;16.02;;;4.15;;
16634;SDS011;8431;52.458;9.998;2023-04-25T06:32:32;17.58;;;3.40;;
16634;SDS011;8431;52.458;9.998;2023-04-25T06:35:00;17.50;;;4.45;;
16634;SDS011;8431;52.458;9.998;2023-04-25T06:37:29;12.68;;;3.47;;
16634;SDS011;8431;52.458;9.998;2023-04-25T06:39:56;15.15;;;3.70;;
16634;SDS011;8431;52.458;9.998;2023-04-25T06:42:23;15.07;;;3.85;;
16634;SDS011;8431;52.458;9.998;2023-04-25T06:44:50;9.13;;;3.05;;
16634;SDS011;8431;52.458;9.998;2023-04-25T06:47:17;15.27;;;3.22;;
16634;SDS011;8431;52.458;9.998;2023-04-25T06:49:45;12.68;;;2.90;;
16634;SDS011;8431;52.458;9.998;2023-04-25T06:52:13;13.73;;;3.55;;
16634;SDS011;8431;52.458;9.998;2023-04-25T06:54:40;12.10;;;3.17;;
16634;SDS011;8431;52.458;9.998;2023-04-25T06:57:07;14.82;;;3.53;;
16634;SDS011;8431;52.458;9.998;2023-04-25T06:59:34;7.65;;;2.83;;
16634;SDS011;8431;52.458;9.998;2023-04-25T07:02:01;9.80;;;3.25;;
16634;SDS011;8431;52.458;9.998;2023-04-25T07:04:28;9.63;;;2.95;;
16634;SDS011;8431;52.458;9.998;2023-04-25T07:06:57;15.30;;;3.10;;
16634;SDS011;8431;52.458;9.998;2023-04-25T07:09:26;11.60;;;3.13;;
16634;SDS011;8431;52.458;9.998;2023-04-25T07:11:53;9.55;;;3.38;;
16634;SDS011;8431;52.458;9.998;2023-04-25T07:14:19;13.50;;;3.25;;
16634;SDS011;8431;52.458;9.998;2023-04-25T07:16:46;13.32;;;2.63;;
16634;SDS011;8431;52.458;9.998;2023-04-25T07:19:14;9.48;;;2.95;;
16634;SDS011;8431;52.458;9.998;2023-04-25T07:21:41;10.02;;;3.05;;
16634;SDS011;8431;52.458;9.998;2023-04-25T07:24:10;13.27;;;3.30;;
16634;SDS011;8431;52.458;9.998;2023-04-25T07:26:37;10.52;;;3.55;;
16634;SDS011;8431;52.458;9.998;2023-04-25T07:29:03;10.52;;;3.00;;
16634;SDS011;8431;52.458;9.998;2023-04-25T07:31:30;12.98;;;3.13;;
16634;SDS011;8431;52.458;9.998;2023-04-25T07:33:57;17.50;;;2.92;;
16634;SDS011;8431;52.458;9.998;2023-04-25T07:36:24;8.57;;;2.65;;
16634;SDS011;8431;52.458;9.998;2023-04-25T07:38:52;9.75;;;2.70;;
16634;SDS011;8431;52.458;9.998;2023-04-25T07:41:20;8.43;;;3.17;;
16634;SDS011;8431;52.458;9.998;2023-04-25T07:43:47;13.85;;;2.92;;
16634;SDS011;8431;52.458;9.998;2023-04-25T07:46:14;8.45;;;3.28;;
16634;SDS011;8431;52.458;9.998;2023-04-25T07:48:41;7.68;;;2.75;;
16634;SDS011;8431;52.458;9.998;2023-04-25T07:51:08;9.32;;;2.65;;
16634;SDS011;8431;52.458;9.998;2023-04-25T07:53:35;7.88;;;2.72;;
16634;SDS011;8431;52.458;9.998;2023-04-25T07:56:03;9.15;;;2.88;;
16634;SDS011;8431;52.458;9.998;2023-04-25T07:58:32;10.25;;;2.90;;
16634;SDS011;8431;52.458;9.998;2023-04-25T08:00:59;5.53;;;2.40;;
16634;SDS011;8431;52.458;9.998;2023-04-25T08:03:26;13.63;;;3.05;;
16634;SDS011;8431;52.458;9.998;2023-04-25T08:05:53;10.52;;;2.92;;
16634;SDS011;8431;52.458;9.998;2023-04-25T08:08:20;10.60;;;3.05;;
16634;SDS011;8431;52.458;9.998;2023-04-25T08:10:47;10.50;;;2.78;;
16634;SDS011;8431;52.458;9.998;2023-04-25T08:13:14;6.05;;;2.53;;
16634;SDS011;8431;52.458;9.998;2023-04-25T08:15:43;10.25;;;2.83;;
16634;SDS011;8431;52.458;9.998;2023-04-25T08:18:10;6.78;;;2.58;;
16634;SDS011;8431;52.458;9.998;2023-04-25T08:20:37;10.10;;;2.90;;
16634;SDS011;8431;52.458;9.998;2023-04-25T08:23:04;11.05;;;2.83;;
16634;SDS011;8431;52.458;9.998;2023-04-25T08:25:31;6.60;;;2.60;;
16634;SDS011;8431;52.458;9.998;2023-04-25T08:27:58;7.43;;;2.20;;
16634;SDS011;8431;52.458;9.998;2023-04-25T08:30:27;5.10;;;2.10;;
16634;SDS011;8431;52.458;9.998;2023-04-25T08:32:56;11.05;;;2.72;;
16634;SDS011;8431;52.458;9.998;2023-04-25T08:35:23;7.25;;;2.45;;
16634;SDS011;8431;52.458;9.998;2023-04-25T08:37:50;9.60;;;2.35;;
16634;SDS011;8431;52.458;9.998;2023-04-25T08:40:17;6.35;;;2.22;;
16634;SDS011;8431;52.458;9.998;2023-04-25T08:42:51;7.75;;;2.08;;
16634;SDS011;8431;52.458;9.998;2023-04-25T08:45:20;12.05;;;3.28;;
16634;SDS011;8431;52.458;9.998;2023-04-25T08:47:47;12.13;;;4.20;;
16634;SDS011;8431;52.458;9.998;2023-04-25T08:50:18;5.38;;;2.10;;
16634;SDS011;8431;52.458;9.998;2023-04-25T08:52:47;5.03;;;1.80;;
16634;SDS011;8431;52.458;9.998;2023-04-25T08:55:17;5.57;;;2.05;;
16634;SDS011;8431;52.458;9.998;2023-04-25T08:57:45;4.22;;;2.22;;
16634;SDS011;8431;52.458;9.998;2023-04-25T09:00:13;5.68;;;2.20;;
16634;SDS011;8431;52.458;9.998;2023-04-25T09:02:41;5.78;;;1.92;;
16634;SDS011;8431;52.458;9.998;2023-04-25T09:05:09;9.55;;;2.17;;
16634;SDS011;8431;52.458;9.998;2023-04-25T09:07:40;5.38;;;1.80;;
16634;SDS011;8431;52.458;9.998;2023-04-25T09:10:07;6.60;;;2.53;;
16634;SDS011;8431;52.458;9.998;2023-04-25T09:12:35;8.43;;;3.00;;
16634;SDS011;8431;52.458;9.998;2023-04-25T09:15:03;5.28;;;1.98;;
16634;SDS011;8431;52.458;9.998;2023-04-25T09:17:32;7.03;;;2.55;;
16634;SDS011;8431;52.458;9.998;2023-04-25T09:20:08;7.15;;;1.80;;
16634;SDS011;8431;52.458;9.998;2023-04-25T09:22:37;5.65;;;1.65;;
16634;SDS011;8431;52.458;9.998;2023-04-25T09:25:09;7.20;;;2.40;;
16634;SDS011;8431;52.458;9.998;2023-04-25T09:27:36;4.53;;;1.98;;
16634;SDS011;8431;52.458;9.998;2023-04-25T09:30:16;8.45;;;2.70;;
16634;SDS011;8431;52.458;9.998;2023-04-25T09:32:44;7.50;;;2.55;;
16634;SDS011;8431;52.458;9.998;2023-04-25T09:35:11;10.40;;;2.38;;
16634;SDS011;8431;52.458;9.998;2023-04-25T09:37:51;7.90;;;2.33;;
16634;SDS011;8431;52.458;9.998;2023-04-25T09:40:19;5.43;;;1.80;;
16634;SDS011;8431;52.458;9.998;2023-04-25T09:42:46;6.70;;;1.90;;
16634;SDS011;8431;52.458;9.998;2023-04-25T09:45:13;9.93;;;1.88;;
16634;SDS011;8431;52.458;9.998;2023-04-25T09:47:40;1.95;;;1.52;;
16634;SDS011;8431;52.458;9.998;2023-04-25T09:50:13;3.20;;;1.55;;
16634;SDS011;8431;52.458;9.998;2023-04-25T09:52:41;4.55;;;1.63;;
16634;SDS011;8431;52.458;9.998;2023-04-25T09:55:08;2.13;;;1.17;;
16634;SDS011;8431;52.458;9.998;2023-04-25T09:57:36;4.57;;;1.77;;
16634;SDS011;8431;52.458;9.998;2023-04-25T10:00:05;3.05;;;1.60;;
16634;SDS011;8431;52.458;9.998;2023-04-25T10:02:37;4.43;;;1.38;;
16634;SDS011;8431;52.458;9.998;2023-04-25T10:05:08;4.78;;;1.45;;
16634;SDS011;8431;52.458;9.998;2023-04-25T10:07:36;6.43;;;1.80;;
16634;SDS011;8431;52.458;9.998;2023-04-25T10:10:04;8.45;;;2.03;;
16634;SDS011;8431;52.458;9.998;2023-04-25T10:12:32;4.40;;;1.50;;
16634;SDS011;8431;52.458;9.998;2023-04-25T10:15:01;6.53;;;1.40;;
16634;SDS011;8431;52.458;9.998;2023-04-25T10:17:30;5.93;;;1.63;;
16634;SDS011;8431;52.458;9.998;2023-04-25T10:19:59;3.05;;;1.58;;
16634;SDS011;8431;52.458;9.998;2023-04-25T10:25:24;3.83;;;1.48;;
16634;SDS011;8431;52.458;9.998;2023-04-25T10:27:52;5.05;;;1.65;;
16634;SDS011;8431;52.458;9.998;2023-04-25T10:30:21;4.70;;;1.42;;
16634;SDS011;8431;52.458;9.998;2023-04-25T10:32:48;4.85;;;1.48;;
16634;SDS011;8431;52.458;9.998;2023-04-25T10:35:16;4.97;;;1.75;;
16634;SDS011;8431;52.458;9.998;2023-04-25T10:37:58;8.02;;;1.58;;
16634;SDS011;8431;52.458;9.998;2023-04-25T10:40:30;5.55;;;2.13;;
16634;SDS011;8431;52.458;9.998;2023-04-25T10:46:03;6.03;;;1.67;;
16634;SDS011;8431;52.458;9.998;2023-04-25T10:48:43;4.68;;;1.60;;
16634;SDS011;8431;52.458;9.998;2023-04-25T10:51:16;5.90;;;2.15;;
16634;SDS011;8431;52.458;9.998;2023-04-25T10:53:56;10.55;;;1.98;;
16634;SDS011;8431;52.458;9.998;2023-04-25T10:56:25;2.92;;;1.92;;
16634;SDS011;8431;52.458;9.998;2023-04-25T10:59:02;3.20;;;1.63;;
16634;SDS011;8431;52.458;9.998;2023-04-25T11:01:37;4.13;;;1.60;;
16634;SDS011;8431;52.458;9.998;2023-04-25T11:04:06;6.43;;;1.40;;
16634;SDS011;8431;52.458;9.998;2023-04-25T11:06:46;7.28;;;2.13;;
16634;SDS011;8431;52.458;9.998;2023-04-25T11:09:29;4.95;;;1.60;;
16634;SDS011;8431;52.458;9.998;2023-04-25T11:12:04;3.90;;;1.40;;
16634;SDS011;8431;52.458;9.998;2023-04-25T11:14:41;5.45;;;1.50;;
16634;SDS011;8431;52.458;9.998;2023-04-25T11:17:09;6.00;;;1.60;;
16634;SDS011;8431;52.458;9.998;2023-04-25T11:19:36;8.48;;;1.65;;
16634;SDS011;8431;52.458;9.998;2023-04-25T11:22:17;5.28;;;1.70;;
16634;SDS011;8431;52.458;9.998;2023-04-25T11:25:20;4.50;;;1.95;;
16634;SDS011;8431;52.458;9.998;2023-04-25T11:27:53;4.68;;;1.52;;
16634;SDS011;8431;52.458;9.998;2023-04-25T11:34:42;5.57;;;1.83;;
16634;SDS011;8431;52.458;9.998;2023-04-25T11:37:10;6.78;;;1.77;;
16634;SDS011;8431;52.458;9.998;2023-04-25T11:39:39;3.95;;;1.30;;
16634;SDS011;8431;52.458;9.998;2023-04-25T11:42:10;4.10;;;1.17;;
16634;SDS011;8431;52.458;9.998;2023-04-25T11:44:37;2.10;;;1.20;;
16634;SDS011;8431;52.458;9.998;2023-04-25T11:47:05;1.73;;;1.00;;
16634;SDS011;8431;52.458;9.998;2023-04-25T11:49:32;4.00;;;1.10;;
16634;SDS011;8431;52.458;9.998;2023-04-25T11:52:02;3.58;;;1.23;;
16634;SDS011;8431;52.458;9.998;2023-04-25T11:54:34;2.70;;;1.63;;
16634;SDS011;8431;52.458;9.998;2023-04-25T11:57:02;2.65;;;1.10;;
16634;SDS011;8431;52.458;9.998;2023-04-25T11:59:29;4.03;;;1.15;;
16634;SDS011;8431;52.458;9.998;2023-04-25T12:02:02;2.08;;;0.98;;
16634;SDS011;8431;52.458;9.998;2023-04-25T13:03:40;3.03;;;1.17;;
16634;SDS011;8431;52.458;9.998;2023-04-25T13:06:07;1.88;;;1.00;;
16634;SDS011;8431;52.458;9.998;2023-04-25T13:08:34;2.58;;;1.17;;
16634;SDS011;8431;52.458;9.998;2023-04-25T13:11:02;2.38;;;1.35;;
16634;SDS011;8431;52.458;9.998;2023-04-25T13:13:29;3.53;;;1.25;;
16634;SDS011;8431;52.458;9.998;2023-04-25T13:15:57;2.40;;;1.10;;
16634;SDS011;8431;52.458;9.998;2023-04-25T13:18:25;4.22;;;1.25;;
16634;SDS011;8431;52.458;9.998;2023-04-25T13:20:54;2.15;;;0.93;;
16634;SDS011;8431;52.458;9.998;2023-04-25T13:23:21;2.60;;;1.10;;
16634;SDS011;8431;52.458;9.998;2023-04-25T13:25:48;1.80;;;1.00;;
16634;SDS011;8431;52.458;9.998;2023-04-25T13:28:15;2.50;;;1.23;;
16634;SDS011;8431;52.458;9.998;2023-04-25T13:30:42;1.60;;;1.08;;
16634;SDS011;8431;52.458;9.998;2023-04-25T13:33:09;2.25;;;1.10;;
16634;SDS011;8431;52.458;9.998;2023-04-25T13:35:37;3.17;;;0.90;;
16634;SDS011;8431;52.458;9.998;2023-04-25T13:38:06;3.47;;;0.90;;
16634;SDS011;8431;52.458;9.998;2023-04-25T13:40:34;3.17;;;1.15;;
16634;SDS011;8431;52.458;9.998;2023-04-25T13:43:01;2.28;;;1.10;;
16634;SDS011;8431;52.458;9.998;2023-04-25T13:45:28;2.72;;;1.08;;
16634;SDS011;8431;52.458;9.998;2023-04-25T13:47:55;4.55;;;1.40;;
16634;SDS011;8431;52.458;9.998;2023-04-25T13:50:22;4.57;;;1.08;;
16634;SDS011;8431;52.458;9.998;2023-04-25T13:52:49;3.95;;;1.30;;
16634;SDS011;8431;52.458;9.998;2023-04-25T13:55:18;4.05;;;1.23;;
16634;SDS011;8431;52.458;9.998;2023-04-25T13:57:45;3.60;;;1.42;;
16634;SDS011;8431;52.458;9.998;2023-04-25T14:00:12;4.28;;;1.50;;
16634;SDS011;8431;52.458;9.998;2023-04-25T14:02:40;4.00;;;1.40;;
16634;SDS011;8431;52.458;9.998;2023-04-25T14:05:07;2.70;;;1.08;;
16634;SDS011;8431;52.458;9.998;2023-04-25T14:07:34;3.95;;;1.65;;
16634;SDS011;8431;52.458;9.998;2023-04-25T14:10:03;2.45;;;1.20;;
16634;SDS011;8431;52.458;9.998;2023-04-25T14:12:32;3.95;;;1.10;;
16634;SDS011;8431;52.458;9.998;2023-04-25T14:14:59;4.47;;;1.60;;
16634;SDS011;8431;52.458;9.998;2023-04-25T14:17:26;2.53;;;1.80;;
16634;SDS011;8431;52.458;9.998;2023-04-25T14:19:53;3.28;;;1.63;;
16634;SDS011;8431;52.458;9.998;2023-04-25T14:22:20;1.52;;;1.25;;
16634;SDS011;8431;52.458;9.998;2023-04-25T14:24:50;4.25;;;1.30;;
16634;SDS011;8431;52.458;9.998;2023-04-25T14:27:51;2.47;;;1.25;;
16634;SDS011;8431;52.458;9.998;2023-04-25T14:30:19;1.27;;;1.00;;
16634;SDS011;8431;52.458;9.998;2023-04-25T14:32:47;2.88;;;1.02;;
16634;SDS011;8431;52.458;9.998;2023-04-25T14:41:56;1.10;;;0.68;;
16634;SDS011;8431;52.458;9.998;2023-04-25T14:55:14;6.88;;;1.70;;
16634;SDS011;8431;52.458;9.998;2023-04-25T15:19:58;2.17;;;1.20;;
16634;SDS011;8431;52.458;9.998;2023-04-25T15:23:07;1.13;;;0.85;;
16634;SDS011;8431;52.458;9.998;2023-04-25T15:43:38;3.15;;;1.10;;
16634;SDS011;8431;52.458;9.998;2023-04-25T15:46:05;2.22;;;1.00;;
16634;SDS011;8431;52.458;9.998;2023-04-25T15:48:38;1.90;;;1.58;;
16634;SDS011;8431;52.458;9.998;2023-04-25T15:51:05;1.70;;;1.52;;
16634;SDS011;8431;52.458;9.998;2023-04-25T15:53:32;3.15;;;1.85;;
16634;SDS011;8431;52.458;9.998;2023-04-25T15:55:59;2.78;;;1.33;;
16634;SDS011;8431;52.458;9.998;2023-04-25T15:58:26;4.72;;;1.60;;
16634;SDS011;8431;52.458;9.998;2023-04-25T16:00:54;3.60;;;1.38;;
16634;SDS011;8431;52.458;9.998;2023-04-25T16:04:08;1.92;;;1.17;;
16634;SDS011;8431;52.458;9.998;2023-04-25T16:06:30;1.85;;;1.35;;
16634;SDS011;8431;52.458;9.998;2023-04-25T16:09:13;1.73;;;1.02;;
16634;SDS011;8431;52.458;9.998;2023-04-25T16:12:11;2.63;;;1.25;;
16634;SDS011;8431;52.458;9.998;2023-04-25T16:14:51;2.38;;;0.90;;
16634;SDS011;8431;52.458;9.998;2023-04-25T16:17:19;4.00;;;1.27;;
16634;SDS011;8431;52.458;9.998;2023-04-25T16:19:55;4.90;;;1.17;;
16634;SDS011;8431;52.458;9.998;2023-04-25T16:25:53;3.00;;;1.20;;
16634;SDS011;8431;52.458;9.998;2023-04-25T16:28:20;2.53;;;1.52;;
16634;SDS011;8431;52.458;9.998;2023-04-25T16:30:49;4.28;;;1.65;;
16634;SDS011;8431;52.458;9.998;2023-04-25T16:33:25;3.55;;;1.95;;
16634;SDS011;8431;52.458;9.998;2023-04-25T16:35:54;5.57;;;1.88;;
16634;SDS011;8431;52.458;9.998;2023-04-25T16:38:26;2.63;;;1.38;;
16634;SDS011;8431;52.458;9.998;2023-04-25T16:43:59;5.65;;;1.50;;
16634;SDS011;8431;52.458;9.998;2023-04-25T16:46:26;3.47;;;1.75;;
16634;SDS011;8431;52.458;9.998;2023-04-25T16:48:54;5.97;;;1.50;;
16634;SDS011;8431;52.458;9.998;2023-04-25T16:51:22;5.28;;;1.63;;
16634;SDS011;8431;52.458;9.998;2023-04-25T16:53:56;4.32;;;1.92;;
16634;SDS011;8431;52.458;9.998;2023-04-25T16:56:23;4.20;;;2.10;;
16634;SDS011;8431;52.458;9.998;2023-04-25T16:58:50;4.03;;;1.95;;
16634;SDS011;8431;52.458;9.998;2023-04-25T17:01:39;3.00;;;1.73;;
16634;SDS011;8431;52.458;9.998;2023-04-25T17:04:07;6.15;;;1.77;;
16634;SDS011;8431;52.458;9.998;2023-04-25T17:06:34;6.63;;;1.98;;
16634;SDS011;8431;52.458;9.998;2023-04-25T17:09:01;5.40;;;2.03;;
16634;SDS011;8431;52.458;9.998;2023-04-25T17:11:30;6.38;;;1.40;;
16634;SDS011;8431;52.458;9.998;2023-04-25T17:13:57;5.63;;;2.00;;
16634;SDS011;8431;52.458;9.998;2023-04-25T17:16:32;2.97;;;1.48;;
16634;SDS011;8431;52.458;9.998;2023-04-25T17:19:14;3.35;;;1.38;;